createdAt,value
2023-04-09T00:01:14.328Z,41.47
2023-04-09T00:03:41.369Z,40.53
2023-04-09T00:06:08.254Z,41.00
2023-04-09T00:08:35.423Z,41.03
2023-04-09T00:11:02.207Z,43.77
2023-04-09T00:13:38.406Z,44.53
2023-04-09T00:16:06.697Z,44.00
2023-04-09T00:18:33.834Z,44.33
2023-04-09T00:21:00.700Z,43.70
2023-04-09T00:23:27.544Z,42.80
2023-04-09T00:25:54.689Z,40.67
2023-04-09T00:28:21.604Z,42.77
2023-04-09T00:30:48.552Z,45.63
2023-04-09T00:33:15.688Z,41.97
2023-04-09T00:35:42.462Z,43.57
2023-04-09T00:38:09.490Z,43.63
2023-04-09T00:40:36.323Z,43.13
2023-04-09T00:43:03.518Z,43.70
2023-04-09T00:45:30.582Z,44.13
2023-04-09T00:47:57.452Z,43.83
2023-04-09T00:50:24.359Z,42.17
2023-04-09T00:52:51.801Z,44.53
2023-04-09T00:55:19.548Z,45.23
2023-04-09T00:57:46.914Z,43.63
2023-04-09T01:00:14.316Z,42.93
2023-04-09T01:02:41.816Z,42.73
2023-04-09T01:05:09.505Z,43.43
2023-04-09T01:07:58.004Z,46.07
2023-04-09T01:10:35.789Z,42.53
2023-04-09T01:13:50.027Z,44.40
2023-04-09T01:16:19.231Z,44.00
2023-04-09T01:19:43.153Z,43.37
2023-04-09T01:22:50.247Z,45.07
2023-04-09T01:25:56.138Z,42.43
2023-04-09T01:28:28.361Z,43.47
2023-04-09T01:31:02.716Z,43.57
2023-04-09T01:33:31.607Z,44.77
2023-04-09T01:35:59.956Z,41.53
2023-04-09T01:38:28.174Z,43.43
2023-04-09T01:40:57.165Z,44.50
2023-04-09T01:43:26.064Z,43.00
2023-04-09T01:45:53.786Z,43.80
2023-04-09T01:48:21.469Z,45.07
2023-04-09T01:50:49.423Z,42.40
2023-04-09T01:53:16.582Z,43.97
2023-04-09T01:55:43.564Z,45.13
2023-04-09T01:58:11.930Z,43.93
2023-04-09T02:00:42.508Z,45.00
2023-04-09T02:03:37.992Z,44.10
2023-04-09T02:06:16.105Z,44.67
2023-04-09T02:08:47.565Z,43.93
2023-04-09T02:11:16.092Z,42.93
2023-04-09T02:13:43.679Z,43.50
2023-04-09T02:16:13.035Z,45.33
2023-04-09T02:18:39.960Z,44.93
2023-04-09T02:21:07.811Z,44.30
2023-04-09T02:23:35.018Z,43.07
2023-04-09T02:26:01.897Z,43.47
2023-04-09T02:28:28.710Z,46.17
2023-04-09T02:30:55.680Z,44.57
2023-04-09T02:33:22.527Z,43.60
2023-04-09T02:35:49.471Z,44.70
2023-04-09T02:38:16.445Z,42.63
2023-04-09T02:40:43.497Z,44.27
2023-04-09T02:43:10.830Z,42.83
2023-04-09T02:45:37.930Z,45.77
2023-04-09T02:48:05.140Z,44.97
2023-04-09T02:50:35.200Z,44.50
2023-04-09T02:53:02.644Z,45.33
2023-04-09T02:55:29.588Z,44.20
2023-04-09T02:57:56.653Z,45.30
2023-04-09T03:00:23.432Z,45.10
2023-04-09T03:02:50.645Z,44.93
2023-04-09T03:05:17.582Z,45.07
2023-04-09T03:07:44.387Z,44.30
2023-04-09T03:10:11.269Z,45.40
2023-04-09T03:12:38.098Z,46.07
2023-04-09T03:15:05.432Z,45.07
2023-04-09T03:17:32.511Z,44.60
2023-04-09T03:19:59.568Z,42.87
2023-04-09T03:22:38.347Z,45.17
2023-04-09T03:25:12.687Z,41.33
2023-04-09T03:27:39.433Z,40.90
2023-04-09T03:30:06.934Z,43.83
2023-04-09T03:32:44.241Z,46.60
2023-04-09T03:35:13.335Z,44.93
2023-04-09T03:37:42.476Z,44.27
2023-04-09T03:40:16.050Z,43.57
2023-04-09T03:42:43.579Z,43.90
2023-04-09T03:45:12.792Z,45.20
2023-04-09T03:47:44.114Z,44.03
2023-04-09T03:50:12.420Z,40.83
2023-04-09T03:52:49.786Z,43.23
2023-04-09T03:55:16.683Z,43.47
2023-04-09T03:57:43.570Z,43.10
2023-04-09T04:00:14.766Z,43.97
2023-04-09T04:02:51.216Z,42.57
2023-04-09T04:05:27.286Z,42.23
2023-04-09T04:07:56.785Z,42.63
2023-04-09T04:10:27.736Z,41.17
2023-04-09T04:12:54.710Z,44.83
2023-04-09T04:15:42.495Z,46.20
2023-04-09T04:18:11.373Z,43.10
2023-04-09T04:20:43.384Z,43.10
2023-04-09T04:23:13.520Z,43.57
2023-04-09T04:25:57.032Z,43.17
2023-04-09T04:28:34.581Z,44.57
2023-04-09T04:31:01.902Z,43.10
2023-04-09T04:33:31.536Z,43.33
2023-04-09T04:36:09.963Z,42.90
2023-04-09T04:38:41.899Z,42.87
2023-04-09T04:41:15.804Z,42.63
2023-04-09T04:43:49.312Z,43.60
2023-04-09T04:46:21.001Z,45.57
2023-04-09T04:48:48.540Z,44.30
2023-04-09T04:51:15.836Z,42.97
2023-04-09T04:53:50.794Z,45.00
2023-04-09T04:56:18.498Z,43.57
2023-04-09T04:59:05.615Z,43.33
2023-04-09T05:01:44.839Z,44.07
2023-04-09T05:04:13.331Z,43.97
2023-04-09T05:06:40.208Z,45.27
2023-04-09T05:09:12.100Z,44.10
2023-04-09T05:11:46.367Z,42.63
2023-04-09T05:14:20.982Z,44.87
2023-04-09T05:16:48.710Z,45.60
2023-04-09T05:19:17.101Z,44.50
2023-04-09T05:21:46.788Z,44.67
2023-04-09T05:24:18.776Z,43.30
2023-04-09T05:26:45.596Z,42.63
2023-04-09T05:29:13.082Z,44.43
2023-04-09T05:31:40.524Z,45.27
2023-04-09T05:34:12.641Z,45.83
2023-04-09T05:36:43.414Z,45.33
2023-04-09T05:39:11.614Z,46.23
2023-04-09T05:41:38.662Z,45.87
2023-04-09T05:44:24.235Z,48.03
2023-04-09T05:46:55.530Z,48.80
2023-04-09T05:49:28.240Z,48.00
2023-04-09T05:51:57.057Z,49.07
2023-04-09T05:54:27.462Z,49.80
2023-04-09T05:56:54.672Z,51.17
2023-04-09T05:59:23.020Z,49.63
2023-04-09T06:01:49.934Z,51.77
2023-04-09T06:04:17.200Z,49.17
2023-04-09T06:06:44.228Z,50.13
2023-04-09T06:09:11.103Z,49.70
2023-04-09T06:11:38.434Z,50.87
2023-04-09T06:14:05.277Z,46.67
2023-04-09T06:16:33.360Z,47.87
2023-04-09T06:19:00.357Z,47.90
2023-04-09T06:21:27.130Z,45.63
2023-04-09T06:23:54.268Z,47.80
2023-04-09T06:26:21.556Z,45.47
2023-04-09T06:28:48.355Z,48.23
2023-04-09T06:31:15.628Z,46.57
2023-04-09T06:33:42.519Z,47.03
2023-04-09T06:36:09.318Z,43.47
2023-04-09T06:38:36.129Z,42.77
2023-04-09T06:41:03.628Z,42.73
2023-04-09T06:43:30.681Z,41.43
2023-04-09T06:45:58.444Z,43.87
2023-04-09T06:48:25.313Z,41.67
2023-04-09T06:50:52.111Z,40.53
2023-04-09T06:53:19.141Z,40.27
2023-04-09T06:55:46.347Z,40.80
2023-04-09T06:58:13.210Z,41.23
2023-04-09T07:00:40.325Z,39.67
2023-04-09T07:03:09.241Z,38.70
2023-04-09T07:05:36.503Z,39.83
2023-04-09T07:08:04.140Z,37.40
2023-04-09T07:10:31.031Z,39.00
2023-04-09T07:12:57.897Z,37.70
2023-04-09T07:15:24.692Z,35.10
2023-04-09T07:17:51.701Z,34.37
2023-04-09T07:20:18.757Z,33.27
2023-04-09T07:22:45.935Z,33.50
2023-04-09T07:25:12.793Z,33.50
2023-04-09T07:27:39.638Z,34.13
2023-04-09T07:30:07.169Z,34.30
2023-04-09T07:32:34.218Z,36.03
2023-04-09T07:35:02.357Z,34.90
2023-04-09T07:37:29.189Z,34.93
2023-04-09T07:39:56.803Z,34.93
2023-04-09T07:42:23.817Z,33.53
2023-04-09T07:44:50.795Z,34.83
2023-04-09T07:47:17.635Z,32.37
2023-04-09T07:49:44.563Z,33.97
2023-04-09T07:52:11.634Z,33.80
2023-04-09T07:54:38.480Z,34.90
2023-04-09T07:57:05.422Z,34.80
2023-04-09T07:59:32.534Z,34.10
2023-04-09T08:01:59.967Z,33.30
2023-04-09T08:04:27.975Z,33.90
2023-04-09T08:06:55.224Z,35.33
2023-04-09T08:09:22.045Z,34.30
2023-04-09T08:11:49.524Z,36.67
2023-04-09T08:14:17.972Z,36.43
2023-04-09T08:16:47.413Z,37.50
2023-04-09T08:19:16.818Z,38.10
2023-04-09T08:21:44.191Z,33.93
2023-04-09T08:24:11.848Z,35.10
2023-04-09T08:26:39.781Z,35.67
2023-04-09T08:29:07.355Z,35.70
2023-04-09T08:31:35.030Z,36.93
2023-04-09T08:34:01.951Z,36.33
2023-04-09T08:36:28.900Z,37.60
2023-04-09T08:38:56.651Z,36.37
2023-04-09T08:41:25.540Z,36.13
2023-04-09T08:46:24.071Z,36.50
2023-04-09T08:48:52.387Z,39.03
2023-04-09T08:51:22.308Z,36.17
2023-04-09T08:53:55.455Z,37.07
2023-04-09T08:56:22.890Z,37.33
2023-04-09T08:58:49.738Z,36.67
2023-04-09T09:01:21.454Z,37.10
2023-04-09T09:03:59.823Z,38.70
2023-04-09T09:06:29.922Z,41.27
2023-04-09T09:09:00.823Z,41.03
2023-04-09T09:11:28.443Z,38.83
2023-04-09T09:14:00.583Z,38.20
2023-04-09T09:16:27.700Z,38.37
2023-04-09T09:18:56.141Z,38.10
2023-04-09T09:21:24.010Z,39.20
2023-04-09T09:23:51.123Z,39.30
2023-04-09T09:26:23.109Z,39.07
2023-04-09T09:28:51.136Z,38.93
2023-04-09T09:31:20.753Z,38.77
2023-04-09T09:33:48.708Z,38.93
2023-04-09T09:36:16.612Z,38.53
2023-04-09T09:38:55.226Z,37.63
2023-04-09T09:41:23.718Z,36.37
2023-04-09T09:43:51.284Z,37.37
2023-04-09T09:46:18.142Z,38.40
2023-04-09T09:48:49.704Z,36.83
2023-04-09T09:51:17.289Z,35.53
2023-04-09T09:53:47.099Z,35.37
2023-04-09T09:56:19.234Z,33.87
2023-04-09T09:58:56.252Z,34.37
2023-04-09T10:01:27.209Z,33.53
2023-04-09T10:03:56.368Z,33.77
2023-04-09T10:06:23.853Z,32.67
2023-04-09T10:08:52.618Z,32.20
2023-04-09T10:11:20.835Z,33.90
2023-04-09T10:13:54.567Z,32.20
2023-04-09T10:16:23.375Z,33.37
2023-04-09T10:18:51.605Z,33.13
2023-04-09T10:21:28.874Z,30.07
2023-04-09T10:23:56.618Z,31.83
2023-04-09T10:26:27.745Z,34.17
2023-04-09T10:29:14.609Z,33.80
2023-04-09T10:31:51.539Z,33.17
2023-04-09T10:34:21.154Z,31.60
2023-04-09T10:36:58.608Z,32.33
2023-04-09T10:39:32.767Z,31.50
2023-04-09T10:42:11.689Z,32.10
2023-04-09T10:44:41.562Z,31.40
2023-04-09T10:47:10.040Z,30.90
2023-04-09T10:49:41.293Z,30.73
2023-04-09T10:52:13.792Z,32.60
2023-04-09T10:54:46.477Z,33.80
2023-04-09T10:57:19.507Z,30.27
2023-04-09T10:59:52.054Z,31.07
2023-04-09T11:02:38.624Z,29.83
2023-04-09T11:05:18.349Z,28.40
2023-04-09T11:07:54.756Z,27.83
2023-04-09T11:10:21.938Z,26.07
2023-04-09T11:12:49.849Z,25.87
2023-04-09T11:15:18.354Z,28.47
2023-04-09T11:17:47.341Z,27.80
2023-04-09T11:20:16.462Z,26.50
2023-04-09T11:22:43.327Z,26.30
2023-04-09T11:25:10.273Z,26.40
2023-04-09T11:27:46.377Z,24.70
2023-04-09T11:30:14.100Z,25.10
2023-04-09T11:32:41.327Z,25.73
2023-04-09T11:35:17.739Z,25.57
2023-04-09T11:37:46.449Z,25.50
2023-04-09T11:40:20.192Z,24.20
2023-04-09T11:42:50.345Z,23.33
2023-04-09T11:45:19.279Z,24.77
2023-04-09T11:47:47.330Z,24.53
2023-04-09T11:50:15.776Z,24.23
2023-04-09T11:52:43.373Z,24.33
2023-04-09T11:55:11.421Z,23.50
2023-04-09T11:57:39.992Z,25.27
2023-04-09T12:00:19.753Z,24.83
2023-04-09T12:02:51.487Z,24.23
2023-04-09T12:05:27.037Z,25.77
2023-04-09T12:08:01.833Z,25.07
2023-04-09T12:10:30.718Z,24.67
2023-04-09T12:13:06.804Z,24.33
2023-04-09T12:15:36.042Z,24.27
2023-04-09T12:18:03.567Z,24.70
2023-04-09T12:20:39.542Z,24.40
2023-04-09T12:23:08.342Z,24.67
2023-04-09T12:25:41.580Z,25.20
2023-04-09T12:28:10.696Z,23.23
2023-04-09T12:30:38.083Z,23.70
2023-04-09T12:33:08.222Z,23.80
2023-04-09T12:35:38.373Z,24.30
2023-04-09T12:38:05.722Z,23.60
2023-04-09T12:40:32.779Z,23.37
2023-04-09T12:42:59.646Z,23.03
2023-04-09T12:45:27.912Z,24.63
2023-04-09T12:47:55.006Z,24.97
2023-04-09T12:50:22.112Z,23.37
2023-04-09T12:52:49.688Z,22.60
2023-04-09T12:55:16.900Z,24.13
2023-04-09T12:57:45.903Z,22.47
2023-04-09T13:00:13.610Z,24.10
2023-04-09T13:02:40.828Z,23.03
2023-04-09T13:05:08.350Z,23.60
2023-04-09T13:07:35.209Z,23.70
2023-04-09T13:10:02.053Z,23.50
2023-04-09T13:12:29.114Z,25.47
2023-04-09T13:14:56.616Z,24.00
2023-04-09T13:17:23.569Z,25.43
2023-04-09T13:19:51.667Z,24.07
2023-04-09T13:22:19.116Z,23.67
2023-04-09T13:24:48.970Z,23.93
2023-04-09T13:27:16.607Z,24.00
2023-04-09T13:29:43.582Z,24.43
2023-04-09T13:32:11.187Z,23.50
2023-04-09T13:34:39.613Z,24.03
2023-04-09T13:37:07.139Z,23.43
2023-04-09T13:39:34.063Z,24.33
2023-04-09T13:42:07.349Z,24.47
2023-04-09T13:44:37.096Z,23.70
2023-04-09T13:47:03.877Z,25.10
2023-04-09T13:49:31.026Z,24.90
2023-04-09T13:51:58.320Z,25.57
2023-04-09T13:54:25.152Z,24.27
2023-04-09T13:56:52.192Z,23.40
2023-04-09T13:59:19.091Z,24.27
2023-04-09T14:01:46.613Z,23.27
2023-04-09T14:04:14.154Z,22.70
2023-04-09T14:06:42.421Z,22.77
2023-04-09T14:09:10.396Z,22.70
2023-04-09T14:11:38.096Z,24.90
2023-04-09T14:14:06.690Z,23.40
2023-04-09T14:16:33.632Z,23.03
2023-04-09T14:19:00.833Z,23.73
2023-04-09T14:21:29.290Z,23.90
2023-04-09T14:23:56.310Z,23.43
2023-04-09T14:26:24.300Z,24.13
2023-04-09T14:28:51.842Z,24.63
2023-04-09T14:31:21.442Z,23.57
2023-04-09T14:33:49.223Z,24.00
2023-04-09T14:36:16.808Z,24.07
2023-04-09T14:38:43.772Z,24.60
2023-04-09T14:41:11.031Z,23.17
2023-04-09T14:43:37.940Z,23.13
2023-04-09T14:46:06.475Z,23.20
2023-04-09T14:48:33.514Z,23.73
2023-04-09T14:51:00.511Z,24.47
2023-04-09T14:53:27.856Z,23.97
2023-04-09T14:55:54.922Z,24.90
2023-04-09T14:58:22.165Z,25.30
2023-04-09T15:00:49.008Z,24.70
2023-04-09T15:03:16.035Z,25.20
2023-04-09T15:05:43.215Z,24.73
2023-04-09T15:08:10.441Z,25.60
2023-04-09T15:10:37.416Z,25.67
2023-04-09T15:13:04.269Z,25.30
2023-04-09T15:15:31.261Z,25.13
2023-04-09T15:18:00.233Z,23.47
2023-04-09T15:20:27.110Z,26.30
2023-04-09T15:22:53.977Z,23.80
2023-04-09T15:25:20.844Z,24.07
2023-04-09T15:27:47.799Z,24.53
2023-04-09T15:30:14.651Z,23.83
2023-04-09T15:32:41.500Z,24.90
2023-04-09T15:35:08.724Z,23.23
2023-04-09T15:37:35.785Z,23.60
2023-04-09T15:40:04.337Z,24.23
2023-04-09T15:42:31.309Z,24.73
2023-04-09T15:44:58.571Z,24.40
2023-04-09T15:47:25.667Z,22.80
2023-04-09T15:49:52.535Z,22.53
2023-04-09T15:52:19.346Z,23.37
2023-04-09T15:54:46.299Z,22.67
2023-04-09T15:57:14.415Z,23.40
2023-04-09T15:59:41.416Z,24.40
2023-04-09T16:02:08.342Z,23.73
2023-04-09T16:04:35.343Z,23.67
2023-04-09T16:07:04.265Z,23.97
2023-04-09T16:09:31.226Z,24.27
2023-04-09T16:11:58.086Z,24.70
2023-04-09T16:14:25.000Z,23.27
2023-04-09T16:16:52.119Z,24.47
2023-04-09T16:19:19.462Z,24.63
2023-04-09T16:21:46.316Z,23.50
2023-04-09T16:24:14.363Z,24.00
2023-04-09T16:26:42.689Z,23.53
2023-04-09T16:29:09.686Z,24.53
2023-04-09T16:31:39.117Z,24.90
2023-04-09T16:34:06.102Z,24.20
2023-04-09T16:36:36.969Z,24.13
2023-04-09T16:39:05.102Z,24.83
2023-04-09T16:41:33.554Z,25.03
2023-04-09T16:44:01.890Z,23.73
2023-04-09T16:46:29.073Z,24.97
2023-04-09T16:48:56.080Z,24.50
2023-04-09T16:51:23.116Z,25.33
2023-04-09T16:53:50.368Z,24.90
2023-04-09T16:56:17.429Z,24.30
2023-04-09T16:58:45.988Z,24.70
2023-04-09T17:01:13.094Z,25.43
2023-04-09T17:03:40.060Z,23.53
2023-04-09T17:06:07.193Z,24.77
2023-04-09T17:08:35.283Z,25.17
2023-04-09T17:11:02.497Z,25.40
2023-04-09T17:13:35.161Z,25.20
2023-04-09T17:16:02.908Z,24.50
2023-04-09T17:18:29.999Z,24.13
2023-04-09T17:20:57.094Z,24.27
2023-04-09T17:23:24.008Z,24.40
2023-04-09T17:25:50.921Z,24.97
2023-04-09T17:28:18.925Z,24.10
2023-04-09T17:30:46.253Z,24.53
2023-04-09T17:33:13.428Z,24.77
2023-04-09T17:35:41.636Z,25.37
2023-04-09T17:38:08.874Z,25.73
2023-04-09T17:40:35.871Z,24.93
2023-04-09T17:43:02.818Z,24.13
2023-04-09T17:45:29.626Z,25.37
2023-04-09T17:47:57.205Z,24.00
2023-04-09T17:50:24.111Z,23.47
2023-04-09T17:52:51.092Z,24.03
2023-04-09T17:55:18.194Z,24.33
2023-04-09T17:57:45.020Z,23.97
2023-04-09T18:00:12.461Z,24.40
2023-04-09T18:02:53.681Z,24.47
2023-04-09T18:05:22.125Z,24.53
2023-04-09T18:07:49.017Z,23.30
2023-04-09T18:10:15.959Z,23.87
2023-04-09T18:12:42.779Z,24.97
2023-04-09T18:15:10.156Z,23.93
2023-04-09T18:17:37.116Z,24.33
2023-04-09T18:20:04.303Z,26.30
2023-04-09T18:22:31.135Z,25.77
2023-04-09T18:24:58.153Z,26.53
2023-04-09T18:27:25.123Z,25.97
2023-04-09T18:29:52.378Z,26.13
2023-04-09T18:32:19.860Z,28.40
2023-04-09T18:34:47.655Z,29.17
2023-04-09T18:37:15.481Z,29.37
2023-04-09T18:39:42.395Z,30.57
2023-04-09T18:42:09.329Z,31.27
2023-04-09T18:44:37.525Z,32.63
2023-04-09T18:47:05.827Z,32.07
2023-04-09T18:49:33.351Z,35.50
2023-04-09T18:52:00.508Z,33.27
2023-04-09T18:54:27.658Z,32.20
2023-04-09T18:56:54.684Z,32.77
2023-04-09T18:59:21.860Z,32.33
2023-04-09T19:01:48.916Z,29.73
2023-04-09T19:04:15.991Z,31.77
2023-04-09T19:06:46.130Z,29.77
2023-04-09T19:09:13.268Z,29.70
2023-04-09T19:11:40.121Z,29.47
2023-04-09T19:14:07.101Z,29.03
2023-04-09T19:16:34.017Z,30.77
2023-04-09T19:19:01.167Z,30.90
2023-04-09T19:21:29.024Z,30.80
2023-04-09T19:23:56.333Z,31.63
2023-04-09T19:26:23.156Z,32.40
2023-04-09T19:28:49.990Z,29.93
2023-04-09T19:31:17.070Z,30.83
2023-04-09T19:33:44.092Z,31.23
2023-04-09T19:36:12.879Z,31.43
2023-04-09T19:38:40.521Z,30.97
2023-04-09T19:41:07.471Z,28.97
2023-04-09T19:43:34.559Z,29.80
2023-04-09T19:46:09.387Z,31.07
2023-04-09T19:48:38.124Z,31.10
2023-04-09T19:51:05.556Z,30.17
2023-04-09T19:53:32.855Z,30.60
2023-04-09T19:55:59.746Z,31.40
2023-04-09T19:58:27.351Z,32.30
2023-04-09T20:00:54.953Z,31.40
2023-04-09T20:03:22.365Z,29.63
2023-04-09T20:05:49.360Z,30.63
2023-04-09T20:08:16.645Z,32.63
2023-04-09T20:10:46.403Z,31.97
2023-04-09T20:13:13.837Z,32.30
2023-04-09T20:15:40.723Z,33.47
2023-04-09T20:18:08.004Z,33.37
2023-04-09T20:20:34.866Z,34.10
2023-04-09T20:23:01.902Z,34.33
2023-04-09T20:25:34.307Z,32.97
2023-04-09T20:28:02.444Z,31.67
2023-04-09T20:30:32.004Z,33.27
2023-04-09T20:32:58.912Z,34.50
2023-04-09T20:35:26.022Z,34.60
2023-04-09T20:37:54.367Z,33.27
2023-04-09T20:40:22.163Z,33.20
2023-04-09T20:42:49.113Z,33.30
2023-04-09T20:45:16.251Z,34.20
2023-04-09T20:47:43.158Z,35.37
2023-04-09T20:50:10.484Z,32.13
2023-04-09T20:52:37.633Z,34.17
2023-04-09T20:55:04.905Z,33.97
2023-04-09T20:57:31.772Z,31.90
2023-04-09T20:59:58.613Z,33.90
2023-04-09T21:02:25.658Z,31.87
2023-04-09T21:04:52.849Z,32.27
2023-04-09T21:07:19.696Z,32.03
2023-04-09T21:09:47.142Z,33.10
2023-04-09T21:12:13.919Z,33.77
2023-04-09T21:14:40.838Z,32.53
2023-04-09T21:17:07.719Z,33.50
2023-04-09T21:19:34.906Z,33.33
2023-04-09T21:22:01.723Z,33.23
2023-04-09T21:24:28.484Z,32.47
2023-04-09T21:26:55.544Z,31.20
2023-04-09T21:29:22.476Z,30.67
2023-04-09T21:31:49.619Z,32.50
2023-04-09T21:34:16.573Z,33.23
2023-04-09T21:36:45.417Z,32.03
2023-04-09T21:39:12.690Z,32.77
2023-04-09T21:41:39.706Z,32.67
2023-04-09T21:44:09.763Z,32.10
2023-04-09T21:46:37.639Z,31.47
2023-04-09T21:49:04.973Z,30.83
2023-04-09T21:51:32.327Z,31.90
2023-04-09T21:54:06.756Z,30.43
2023-04-09T21:56:35.524Z,32.90
2023-04-09T21:59:02.719Z,32.63
2023-04-09T22:01:34.377Z,32.43
2023-04-09T22:04:02.170Z,32.93
2023-04-09T22:06:29.781Z,32.00
2023-04-09T22:08:58.049Z,33.43
2023-04-09T22:11:28.151Z,32.73
2023-04-09T22:13:56.704Z,33.40
2023-04-09T22:16:24.323Z,31.53
2023-04-09T22:18:51.748Z,30.97
2023-04-09T22:21:18.785Z,32.50
2023-04-09T22:23:45.801Z,31.13
2023-04-09T22:26:13.065Z,32.80
2023-04-09T22:28:39.988Z,33.43
2023-04-09T22:31:07.150Z,32.70
2023-04-09T22:33:34.011Z,33.60
2023-04-09T22:36:00.868Z,32.93
2023-04-09T22:38:27.776Z,34.53
2023-04-09T22:40:54.735Z,32.63
2023-04-09T22:43:21.651Z,33.73
2023-04-09T22:45:54.961Z,33.90
2023-04-09T22:48:22.905Z,33.63
2023-04-09T22:50:51.606Z,35.87
2023-04-09T22:53:19.322Z,35.13
2023-04-09T22:55:51.580Z,34.20
2023-04-09T22:58:18.999Z,34.07
2023-04-09T23:00:47.104Z,32.73
2023-04-09T23:03:14.349Z,33.67
2023-04-09T23:05:41.438Z,33.17
2023-04-09T23:08:08.970Z,32.17
2023-04-09T23:10:36.135Z,32.70
2023-04-09T23:13:02.992Z,32.90
2023-04-09T23:15:29.825Z,31.60
2023-04-09T23:17:57.004Z,33.77
2023-04-09T23:20:24.021Z,32.10
2023-04-09T23:22:51.115Z,32.90
2023-04-09T23:25:18.485Z,31.50
2023-04-09T23:27:46.674Z,32.57
2023-04-09T23:30:16.920Z,33.30
2023-04-09T23:32:45.158Z,34.23
2023-04-09T23:35:12.758Z,30.03
2023-04-09T23:37:40.670Z,32.30
2023-04-09T23:40:08.461Z,32.43
2023-04-09T23:42:35.565Z,32.60
2023-04-09T23:45:04.273Z,31.90
2023-04-09T23:47:33.587Z,34.97
2023-04-09T23:50:06.043Z,32.27
2023-04-09T23:52:38.109Z,32.23
2023-04-09T23:55:08.651Z,32.27
2023-04-09T23:57:35.877Z,34.23
